Time;durP1;ratioP1;P1;durP2;ratioP2;P2;SDS_P1;SDS_P2;PMS_P1;PMS_P2;Temp;Humidity;BMP_temperature;BMP_pressure;BME280_temperature;BME280_humidity;BME280_pressure;Samples;Min_cycle;Max_cycle;Signal;HPM_P1;HPM_P2
2023/10/09 00:00:35;;;;;;;6.03;2.90;;;;;;;;;;8218677;28;20017;-62
2023/10/09 00:04:30;;;;;;;4.90;2.60;;;;;;;;;;8218557;28;20025;-62
2023/10/09 00:08:30;;;;;;;7.35;2.70;;;;;;;;;;8225953;28;20018;-62
2023/10/09 00:12:31;;;;;;;9.05;2.70;;;;;;;;;;8216523;28;20030;-62
2023/10/09 00:16:43;;;;;;;6.70;2.28;;;;;;;;;;8225240;28;20125;-63
2023/10/09 00:20:44;;;;;;;5.25;2.20;;;;;;;;;;8219862;28;20022;-62
2023/10/09 00:24:46;;;;;;;6.57;2.10;;;;;;;;;;8220392;28;20032;-62
2023/10/09 00:28:47;;;;;;;8.20;2.60;;;;;;;;;;8220796;28;20029;-62
2023/10/09 00:33:07;;;;;;;9.43;2.60;;;;;;;;;;8217265;28;20038;-63
2023/10/09 00:37:16;;;;;;;9.32;2.40;;;;;;;;;;8219705;28;20037;-62
2023/10/09 00:41:20;;;;;;;5.25;2.60;;;;;;;;;;8217007;28;20034;-62
2023/10/09 00:45:27;;;;;;;8.90;2.40;;;;;;;;;;8218572;28;20145;-63
2023/10/09 00:49:27;;;;;;;7.35;2.53;;;;;;;;;;8219908;28;20030;-63
2023/10/09 00:53:33;;;;;;;5.93;2.10;;;;;;;;;;8214307;28;20458;-62
2023/10/09 00:57:37;;;;;;;7.45;2.30;;;;;;;;;;8219603;28;20025;-62
2023/10/09 01:01:40;;;;;;;8.82;2.10;;;;;;;;;;8218018;28;20042;-63
2023/10/09 01:05:56;;;;;;;5.20;2.40;;;;;;;;;;8217995;28;20022;-62
2023/10/09 01:09:56;;;;;;;7.28;1.90;;;;;;;;;;8217219;28;20026;-64
2023/10/09 01:18:09;;;;;;;4.88;2.00;;;;;;;;;;8213670;28;20061;-62
2023/10/09 01:22:12;;;;;;;11.38;2.63;;;;;;;;;;8217692;28;20023;-62
2023/10/09 01:26:12;;;;;;;5.07;2.33;;;;;;;;;;8218704;28;20159;-62
2023/10/09 01:30:13;;;;;;;7.07;2.63;;;;;;;;;;8215719;28;20057;-62
2023/10/09 01:34:15;;;;;;;7.40;2.42;;;;;;;;;;8223857;28;20026;-62
2023/10/09 01:38:15;;;;;;;11.95;2.75;;;;;;;;;;8215526;28;20022;-62
2023/10/09 01:42:34;;;;;;;12.13;2.38;;;;;;;;;;8219365;28;20041;-63
2023/10/09 01:46:34;;;;;;;6.43;2.40;;;;;;;;;;8216717;28;20045;-65
2023/10/09 01:50:41;;;;;;;4.93;2.30;;;;;;;;;;8223414;28;20038;-62
2023/10/09 01:54:46;;;;;;;6.97;2.20;;;;;;;;;;8221549;28;20018;-63
2023/10/09 01:58:47;;;;;;;3.47;2.33;;;;;;;;;;8221320;28;20029;-63
2023/10/09 02:02:48;;;;;;;8.10;2.47;;;;;;;;;;8223444;28;20042;-62
2023/10/09 02:06:52;;;;;;;9.30;2.80;;;;;;;;;;8222677;28;20014;-63
2023/10/09 02:10:55;;;;;;;6.45;2.45;;;;;;;;;;8222094;28;20956;-63
2023/10/09 02:14:56;;;;;;;4.70;2.33;;;;;;;;;;8219712;28;20037;-63
2023/10/09 02:18:56;;;;;;;5.35;2.55;;;;;;;;;;8220953;28;20037;-62
2023/10/09 02:22:57;;;;;;;8.20;2.55;;;;;;;;;;8221274;28;20207;-63
2023/10/09 02:31:00;;;;;;;8.43;2.50;;;;;;;;;;8224464;28;20040;-62
2023/10/09 02:35:08;;;;;;;12.93;2.70;;;;;;;;;;8223504;28;20640;-62
2023/10/09 02:39:25;;;;;;;11.60;2.72;;;;;;;;;;8221164;28;20058;-62
2023/10/09 02:43:26;;;;;;;12.95;3.53;;;;;;;;;;8222153;28;21020;-62
2023/10/09 02:47:31;;;;;;;7.28;2.60;;;;;;;;;;8224479;28;20569;-62
2023/10/09 02:51:41;;;;;;;9.63;2.70;;;;;;;;;;8219773;28;20037;-62
2023/10/09 02:55:53;;;;;;;11.07;2.50;;;;;;;;;;8219154;28;20106;-62
2023/10/09 02:59:53;;;;;;;7.07;3.00;;;;;;;;;;8219771;28;20026;-62
2023/10/09 03:03:53;;;;;;;8.38;2.70;;;;;;;;;;8217816;28;20034;-61
2023/10/09 03:07:54;;;;;;;9.13;3.00;;;;;;;;;;8220518;28;20028;-62
2023/10/09 03:12:00;;;;;;;8.23;2.88;;;;;;;;;;8221530;28;20026;-61
2023/10/09 03:16:02;;;;;;;10.20;2.17;;;;;;;;;;8219449;28;20389;-63
2023/10/09 03:20:17;;;;;;;7.78;2.35;;;;;;;;;;8219955;28;20019;-62
2023/10/09 03:24:17;;;;;;;6.05;2.70;;;;;;;;;;8218938;28;20026;-63
2023/10/09 03:28:18;;;;;;;10.35;2.63;;;;;;;;;;8221284;28;20022;-62
2023/10/09 03:32:19;;;;;;;12.02;3.03;;;;;;;;;;8217101;28;20045;-63
2023/10/09 03:36:19;;;;;;;11.80;3.05;;;;;;;;;;8221336;28;20026;-62
2023/10/09 03:40:21;;;;;;;17.33;3.17;;;;;;;;;;8221947;28;20036;-63
2023/10/09 03:44:22;;;;;;;8.25;2.95;;;;;;;;;;8221743;28;20026;-63
2023/10/09 03:48:26;;;;;;;11.30;3.25;;;;;;;;;;8218271;28;20119;-62
2023/10/09 03:52:28;;;;;;;8.80;2.90;;;;;;;;;;8219448;28;20823;-63
2023/10/09 03:56:28;;;;;;;11.93;3.15;;;;;;;;;;8221050;28;20704;-63
2023/10/09 04:00:29;;;;;;;10.05;2.78;;;;;;;;;;8216257;28;20038;-61
2023/10/09 04:04:31;;;;;;;14.25;3.17;;;;;;;;;;8225612;28;20034;-62
2023/10/09 04:08:33;;;;;;;12.80;3.20;;;;;;;;;;8226861;28;20489;-63
2023/10/09 04:12:34;;;;;;;10.20;2.90;;;;;;;;;;8218584;28;20161;-62
2023/10/09 04:16:34;;;;;;;14.48;3.45;;;;;;;;;;8219586;28;20062;-62
2023/10/09 04:24:53;;;;;;;13.75;3.00;;;;;;;;;;8216770;28;20033;-62
2023/10/09 04:28:53;;;;;;;15.60;3.22;;;;;;;;;;8219636;28;20676;-63
2023/10/09 04:32:59;;;;;;;12.98;3.17;;;;;;;;;;8215353;28;20048;-62
2023/10/09 04:41:27;;;;;;;10.48;3.15;;;;;;;;;;8217327;28;20036;-62
2023/10/09 04:53:59;;;;;;;9.98;3.65;;;;;;;;;;8218073;28;20712;-62
2023/10/09 04:58:09;;;;;;;14.13;3.28;;;;;;;;;;8217149;28;20239;-63
2023/10/09 05:02:19;;;;;;;12.23;3.13;;;;;;;;;;8215360;28;20082;-63
2023/10/09 05:06:32;;;;;;;13.13;3.08;;;;;;;;;;8218783;28;20472;-62
2023/10/09 05:10:32;;;;;;;11.02;3.25;;;;;;;;;;8212615;28;20577;-62
2023/10/09 05:14:39;;;;;;;11.70;3.33;;;;;;;;;;8218287;28;20036;-62
2023/10/09 05:18:41;;;;;;;11.55;2.90;;;;;;;;;;8212959;28;20667;-62
2023/10/09 05:22:53;;;;;;;7.22;2.90;;;;;;;;;;8216986;28;20049;-62
2023/10/09 05:26:53;;;;;;;17.80;3.75;;;;;;;;;;8215210;28;20041;-63
2023/10/09 05:31:09;;;;;;;15.40;3.55;;;;;;;;;;8221354;28;20034;-62
2023/10/09 05:35:20;;;;;;;8.13;3.28;;;;;;;;;;8228866;28;20036;-62
2023/10/09 05:39:40;;;;;;;17.00;3.30;;;;;;;;;;8230390;28;20025;-62
2023/10/09 06:09:49;;;;;;;10.68;3.45;;;;;;;;;;8229376;28;20033;-65
2023/10/09 06:14:02;;;;;;;13.80;3.47;;;;;;;;;;8228048;28;20096;-61
2023/10/09 06:18:25;;;;;;;16.42;3.45;;;;;;;;;;8225667;28;20034;-62
2023/10/09 06:31:27;;;;;;;7.55;3.25;;;;;;;;;;8222684;28;20038;-63
2023/10/09 06:35:33;;;;;;;13.93;3.28;;;;;;;;;;8224855;28;20037;-64
2023/10/09 06:43:55;;;;;;;14.60;3.50;;;;;;;;;;8223642;28;20255;-64
2023/10/09 06:47:55;;;;;;;9.23;3.00;;;;;;;;;;8220177;28;20942;-64
2023/10/09 06:52:13;;;;;;;9.73;3.55;;;;;;;;;;8225344;28;20030;-63
2023/10/09 06:56:26;;;;;;;9.15;3.22;;;;;;;;;;8214885;28;20053;-63
2023/10/09 07:08:57;;;;;;;8.10;2.95;;;;;;;;;;8223464;28;20047;-63
2023/10/09 07:12:58;;;;;;;12.45;3.33;;;;;;;;;;8219761;28;20113;-63
2023/10/09 07:21:27;;;;;;;5.03;3.10;;;;;;;;;;8221311;28;20096;-62
2023/10/09 07:25:29;;;;;;;13.63;3.55;;;;;;;;;;8216892;28;20034;-62
2023/10/09 07:29:29;;;;;;;9.05;3.50;;;;;;;;;;8223440;28;20868;-62
2023/10/09 07:33:33;;;;;;;10.68;3.20;;;;;;;;;;8222061;28;20042;-63
2023/10/09 07:37:37;;;;;;;10.73;3.25;;;;;;;;;;8222836;28;20030;-62
2023/10/09 07:41:44;;;;;;;12.27;3.55;;;;;;;;;;8221638;28;20038;-62
2023/10/09 07:49:53;;;;;;;14.60;3.20;;;;;;;;;;8221038;28;20057;-62
2023/10/09 07:53:57;;;;;;;11.17;3.40;;;;;;;;;;8222356;28;20538;-62
2023/10/09 07:57:57;;;;;;;15.90;3.80;;;;;;;;;;8222673;28;20288;-62
2023/10/09 08:02:04;;;;;;;13.27;3.37;;;;;;;;;;8217854;28;20038;-63
2023/10/09 08:06:24;;;;;;;10.43;3.13;;;;;;;;;;8222683;28;20022;-62
2023/10/09 08:18:44;;;;;;;13.03;4.33;;;;;;;;;;8221300;28;20038;-63
2023/10/09 08:22:50;;;;;;;12.18;3.65;;;;;;;;;;8220814;28;20347;-63
2023/10/09 08:27:27;;;;;;;6.00;3.60;;;;;;;;;;8222190;28;20033;-62
2023/10/09 08:31:45;;;;;;;8.73;3.63;;;;;;;;;;8219515;28;20534;-62
2023/10/09 08:35:49;;;;;;;7.55;3.85;;;;;;;;;;8221138;28;20076;-62
2023/10/09 08:39:49;;;;;;;7.75;3.53;;;;;;;;;;8218327;28;20088;-62
2023/10/09 08:43:53;;;;;;;8.45;3.53;;;;;;;;;;8222494;28;20026;-62
2023/10/09 08:47:56;;;;;;;8.15;3.78;;;;;;;;;;8218490;28;20043;-62
2023/10/09 08:52:03;;;;;;;8.52;3.40;;;;;;;;;;8223527;28;20564;-62
2023/10/09 08:56:04;;;;;;;9.38;3.95;;;;;;;;;;8222207;28;20175;-62
2023/10/09 09:00:09;;;;;;;10.23;3.80;;;;;;;;;;8217000;28;20029;-63
2023/10/09 09:04:10;;;;;;;6.70;3.75;;;;;;;;;;8220702;28;20133;-63
2023/10/09 09:08:24;;;;;;;8.45;3.72;;;;;;;;;;8220527;28;20038;-62
2023/10/09 09:12:28;;;;;;;18.42;3.88;;;;;;;;;;8218348;28;20026;-62
2023/10/09 09:16:32;;;;;;;10.25;3.75;;;;;;;;;;8217884;28;20250;-63
2023/10/09 09:20:39;;;;;;;9.85;4.05;;;;;;;;;;8217962;28;20832;-63
2023/10/09 09:25:00;;;;;;;11.98;3.97;;;;;;;;;;8217422;28;20026;-62
2023/10/09 09:29:01;;;;;;;7.97;3.63;;;;;;;;;;8217900;28;20034;-62
2023/10/09 09:33:20;;;;;;;11.85;4.10;;;;;;;;;;8215495;28;20034;-62
2023/10/09 09:37:20;;;;;;;8.02;3.80;;;;;;;;;;8216036;28;20042;-62
2023/10/09 09:41:24;;;;;;;6.43;3.78;;;;;;;;;;8217374;28;20033;-62
2023/10/09 09:45:24;;;;;;;5.88;3.35;;;;;;;;;;8215950;28;20515;-62
2023/10/09 09:49:31;;;;;;;6.88;3.40;;;;;;;;;;8216327;28;20136;-62
2023/10/09 09:53:34;;;;;;;6.63;3.50;;;;;;;;;;8217381;28;20022;-62
2023/10/09 09:57:39;;;;;;;6.47;3.50;;;;;;;;;;8217075;28;20026;-63
2023/10/09 10:01:40;;;;;;;8.25;3.55;;;;;;;;;;8214031;28;20038;-65
2023/10/09 10:05:46;;;;;;;6.55;3.45;;;;;;;;;;8214468;28;20030;-63
2023/10/09 10:09:48;;;;;;;8.07;3.72;;;;;;;;;;8216582;28;20029;-62
2023/10/09 10:13:49;;;;;;;7.45;3.83;;;;;;;;;;8218376;28;20066;-62
2023/10/09 10:18:01;;;;;;;7.47;3.90;;;;;;;;;;8221132;28;20042;-62
2023/10/09 10:22:21;;;;;;;10.07;3.83;;;;;;;;;;8220361;28;20735;-63
2023/10/09 10:26:30;;;;;;;9.55;3.90;;;;;;;;;;8221979;28;20717;-63
2023/10/09 10:30:34;;;;;;;12.52;4.45;;;;;;;;;;8221185;28;20125;-62
2023/10/09 10:35:06;;;;;;;10.15;3.58;;;;;;;;;;8220613;28;20018;-62
2023/10/09 10:39:21;;;;;;;9.77;4.00;;;;;;;;;;8220983;28;20206;-62
2023/10/09 10:47:42;;;;;;;10.77;4.53;;;;;;;;;;8220307;28;20057;-62
2023/10/09 10:51:48;;;;;;;12.10;4.43;;;;;;;;;;8221122;28;20190;-62
2023/10/09 10:56:17;;;;;;;13.82;3.85;;;;;;;;;;8220019;28;20144;-62
2023/10/09 11:08:36;;;;;;;6.90;3.97;;;;;;;;;;8219573;28;20030;-64
2023/10/09 11:12:44;;;;;;;7.78;4.00;;;;;;;;;;8222085;28;20719;-62
2023/10/09 11:16:47;;;;;;;7.60;4.07;;;;;;;;;;8216812;28;21905;-62
2023/10/09 11:25:11;;;;;;;5.13;3.58;;;;;;;;;;8219578;28;20112;-62
2023/10/09 11:29:16;;;;;;;6.20;4.07;;;;;;;;;;8212839;28;20137;-62
2023/10/09 11:33:17;;;;;;;8.13;3.78;;;;;;;;;;8218324;28;20188;-63
2023/10/09 11:41:34;;;;;;;9.20;3.92;;;;;;;;;;8216969;28;20030;-64
2023/10/09 11:45:37;;;;;;;8.30;4.00;;;;;;;;;;8222327;28;20068;-62
2023/10/09 11:49:47;;;;;;;9.15;4.32;;;;;;;;;;8215800;28;20029;-63
2023/10/09 11:53:50;;;;;;;10.60;4.38;;;;;;;;;;8221326;28;20037;-62
2023/10/09 11:57:51;;;;;;;9.32;4.20;;;;;;;;;;8221270;28;21348;-64
2023/10/09 12:01:52;;;;;;;12.35;4.78;;;;;;;;;;8215569;28;20121;-62
2023/10/09 12:05:53;;;;;;;8.70;3.40;;;;;;;;;;8219458;28;20037;-64
2023/10/09 12:09:56;;;;;;;8.75;3.65;;;;;;;;;;8223010;28;20034;-61
2023/10/09 12:13:57;;;;;;;7.85;4.00;;;;;;;;;;8216549;28;20022;-62
2023/10/09 12:17:58;;;;;;;9.30;4.22;;;;;;;;;;8220107;28;20046;-62
2023/10/09 12:22:00;;;;;;;7.93;4.50;;;;;;;;;;8218230;28;20028;-62
2023/10/09 12:26:00;;;;;;;8.70;4.55;;;;;;;;;;8219043;28;20290;-62
2023/10/09 12:30:03;;;;;;;9.70;4.40;;;;;;;;;;8221104;28;20120;-62
2023/10/09 12:34:03;;;;;;;8.65;4.40;;;;;;;;;;8215980;28;21461;-61
2023/10/09 12:38:08;;;;;;;9.45;4.00;;;;;;;;;;8214289;28;20018;-61
2023/10/09 12:42:08;;;;;;;16.85;4.78;;;;;;;;;;8216589;28;20096;-61
2023/10/09 12:46:08;;;;;;;10.07;4.65;;;;;;;;;;8217779;28;20046;-61
2023/10/09 12:50:13;;;;;;;10.70;4.25;;;;;;;;;;8216303;28;20038;-62
2023/10/09 12:54:14;;;;;;;9.18;4.75;;;;;;;;;;8218643;28;20040;-61
2023/10/09 12:58:15;;;;;;;9.07;4.07;;;;;;;;;;8218200;28;20307;-61
2023/10/09 13:02:36;;;;;;;11.75;4.75;;;;;;;;;;8214433;28;20699;-62
2023/10/09 13:06:43;;;;;;;11.00;4.55;;;;;;;;;;8218665;28;20054;-62
2023/10/09 13:10:43;;;;;;;15.15;4.30;;;;;;;;;;8216838;28;20022;-62
2023/10/09 13:14:45;;;;;;;9.32;4.13;;;;;;;;;;8214425;28;20029;-62
2023/10/09 13:18:49;;;;;;;12.57;4.57;;;;;;;;;;8213083;28;20038;-61
2023/10/09 13:22:52;;;;;;;11.55;5.07;;;;;;;;;;8217306;28;20097;-62
2023/10/09 13:26:53;;;;;;;10.95;4.65;;;;;;;;;;8211340;28;21760;-62
2023/10/09 13:30:54;;;;;;;14.55;4.45;;;;;;;;;;8210498;28;20034;-62
2023/10/09 13:34:55;;;;;;;9.38;5.30;;;;;;;;;;8219776;28;20373;-61
2023/10/09 13:43:18;;;;;;;15.17;4.30;;;;;;;;;;8219096;28;20037;-61
2023/10/09 13:47:23;;;;;;;12.77;4.40;;;;;;;;;;8219569;28;20506;-61
2023/10/09 13:51:24;;;;;;;11.82;4.28;;;;;;;;;;8226242;28;20053;-61
2023/10/09 13:55:31;;;;;;;11.35;4.72;;;;;;;;;;8224329;28;20463;-61
2023/10/09 13:59:35;;;;;;;12.07;4.47;;;;;;;;;;8219339;28;20398;-62
2023/10/09 14:03:35;;;;;;;8.90;4.47;;;;;;;;;;8224090;28;20891;-62
2023/10/09 14:07:35;;;;;;;8.07;4.50;;;;;;;;;;8224307;28;20457;-62
2023/10/09 14:11:37;;;;;;;9.48;4.80;;;;;;;;;;8223720;28;20038;-61
2023/10/09 14:15:41;;;;;;;14.53;4.27;;;;;;;;;;8218742;28;20034;-61
2023/10/09 14:19:46;;;;;;;7.50;4.18;;;;;;;;;;8224706;28;20033;-62
2023/10/09 14:23:47;;;;;;;8.57;4.10;;;;;;;;;;8219816;28;20096;-61
2023/10/09 14:27:48;;;;;;;10.25;4.32;;;;;;;;;;8222289;28;20030;-61
2023/10/09 14:31:59;;;;;;;10.73;4.80;;;;;;;;;;8222262;28;20645;-61
2023/10/09 14:36:01;;;;;;;8.57;4.40;;;;;;;;;;8224796;28;20116;-61
2023/10/09 14:40:03;;;;;;;10.35;4.78;;;;;;;;;;8222123;28;20026;-61
2023/10/09 14:44:04;;;;;;;9.98;4.75;;;;;;;;;;8223347;28;20026;-61
2023/10/09 14:48:05;;;;;;;10.32;5.00;;;;;;;;;;8219337;28;20041;-61
2023/10/09 14:52:08;;;;;;;9.38;4.70;;;;;;;;;;8223922;28;20022;-61
2023/10/09 14:56:09;;;;;;;13.20;4.72;;;;;;;;;;8222581;28;20030;-62
2023/10/09 15:00:15;;;;;;;8.57;4.55;;;;;;;;;;8216295;28;20583;-61
2023/10/09 15:04:16;;;;;;;12.55;4.68;;;;;;;;;;8217400;28;20617;-61
2023/10/09 15:08:17;;;;;;;11.23;5.00;;;;;;;;;;8219762;28;20022;-60
2023/10/09 15:12:17;;;;;;;9.25;5.00;;;;;;;;;;8220997;28;20671;-60
2023/10/09 15:16:18;;;;;;;10.00;4.85;;;;;;;;;;8214065;28;20037;-61
2023/10/09 15:20:20;;;;;;;6.93;4.72;;;;;;;;;;8218507;28;21199;-61
2023/10/09 15:24:20;;;;;;;9.37;4.80;;;;;;;;;;8198876;28;20045;-61
2023/10/09 15:28:21;;;;;;;7.07;4.57;;;;;;;;;;8192146;28;20046;-61
2023/10/09 15:32:23;;;;;;;9.80;4.90;;;;;;;;;;8221659;28;20189;-62
2023/10/09 15:36:28;;;;;;;8.90;5.30;;;;;;;;;;8221766;28;20022;-61
2023/10/09 15:40:36;;;;;;;8.25;4.57;;;;;;;;;;8215327;28;20077;-61
2023/10/09 15:44:37;;;;;;;9.75;4.47;;;;;;;;;;8211011;28;20538;-67
2023/10/09 15:48:38;;;;;;;10.95;4.50;;;;;;;;;;8212348;28;20515;-62
2023/10/09 15:52:39;;;;;;;5.65;4.32;;;;;;;;;;8215547;28;20154;-61
2023/10/09 15:56:41;;;;;;;7.40;4.88;;;;;;;;;;8216901;28;20026;-61
2023/10/09 16:00:43;;;;;;;9.55;4.63;;;;;;;;;;8215619;28;20026;-61
2023/10/09 16:04:44;;;;;;;8.25;4.47;;;;;;;;;;8216155;28;20049;-61
2023/10/09 16:08:50;;;;;;;9.35;4.90;;;;;;;;;;8215371;28;20021;-61
2023/10/09 16:12:52;;;;;;;12.02;4.90;;;;;;;;;;8214672;28;20030;-61
2023/10/09 16:16:55;;;;;;;8.10;4.40;;;;;;;;;;8211977;28;21075;-61
2023/10/09 16:20:55;;;;;;;10.07;4.70;;;;;;;;;;8207626;28;20076;-61
2023/10/09 16:24:59;;;;;;;8.35;4.28;;;;;;;;;;8217122;28;20054;-62
2023/10/09 16:28:59;;;;;;;9.02;4.72;;;;;;;;;;8211708;28;20030;-62
2023/10/09 16:33:00;;;;;;;9.65;4.25;;;;;;;;;;8214664;28;20054;-62
2023/10/09 16:37:01;;;;;;;9.07;4.88;;;;;;;;;;8214874;28;20556;-62
2023/10/09 16:41:07;;;;;;;9.30;4.83;;;;;;;;;;8214940;28;20026;-61
2023/10/09 16:45:15;;;;;;;8.48;4.55;;;;;;;;;;8213808;28;20871;-61
2023/10/09 16:49:18;;;;;;;7.13;4.57;;;;;;;;;;8213227;28;20050;-61
2023/10/09 16:53:19;;;;;;;6.60;4.45;;;;;;;;;;8213606;28;20690;-61
2023/10/09 16:57:19;;;;;;;9.27;4.10;;;;;;;;;;8213029;28;20055;-61
2023/10/09 17:01:20;;;;;;;9.57;4.70;;;;;;;;;;8210810;28;20044;-61
2023/10/09 17:05:27;;;;;;;5.43;3.75;;;;;;;;;;8212442;28;20124;-61
2023/10/09 17:09:27;;;;;;;8.73;4.50;;;;;;;;;;8213030;28;20057;-61
2023/10/09 17:13:28;;;;;;;7.20;4.40;;;;;;;;;;8212178;28;20049;-62
2023/10/09 17:17:31;;;;;;;11.38;5.00;;;;;;;;;;8208196;28;20153;-61
2023/10/09 17:21:35;;;;;;;6.38;4.20;;;;;;;;;;8212422;28;20679;-67
2023/10/09 17:25:37;;;;;;;11.68;4.90;;;;;;;;;;8211269;28;20079;-61
2023/10/09 17:29:37;;;;;;;11.55;4.28;;;;;;;;;;8207491;28;20030;-61
2023/10/09 17:33:38;;;;;;;12.23;4.68;;;;;;;;;;8211353;28;20042;-61
2023/10/09 17:37:38;;;;;;;8.60;4.15;;;;;;;;;;8213119;28;20769;-61
2023/10/09 17:41:38;;;;;;;7.82;4.63;;;;;;;;;;8211741;28;20025;-61
2023/10/09 17:45:41;;;;;;;13.77;4.80;;;;;;;;;;8213236;28;20128;-60
2023/10/09 17:49:41;;;;;;;9.38;4.70;;;;;;;;;;8213127;28;20184;-61
2023/10/09 17:53:42;;;;;;;11.20;5.07;;;;;;;;;;8209817;28;20205;-61
2023/10/09 17:57:43;;;;;;;8.10;4.45;;;;;;;;;;8209019;28;20038;-61
2023/10/09 18:01:43;;;;;;;9.47;4.57;;;;;;;;;;8207366;28;20040;-61
2023/10/09 18:05:44;;;;;;;8.80;4.78;;;;;;;;;;8213313;28;20037;-61
2023/10/09 18:09:56;;;;;;;9.68;4.60;;;;;;;;;;8212155;28;20116;-61
2023/10/09 18:13:58;;;;;;;9.20;4.45;;;;;;;;;;8204322;28;20026;-61
2023/10/09 18:17:59;;;;;;;8.15;4.47;;;;;;;;;;8210560;28;20038;-60
2023/10/09 18:22:00;;;;;;;12.82;4.60;;;;;;;;;;8204710;28;20022;-61
2023/10/09 18:26:01;;;;;;;12.50;4.05;;;;;;;;;;8209148;28;20029;-61
2023/10/09 18:30:01;;;;;;;8.02;4.38;;;;;;;;;;8204606;28;20102;-61
2023/10/09 18:34:02;;;;;;;10.33;4.23;;;;;;;;;;8209625;28;20098;-61
2023/10/09 18:38:04;;;;;;;8.32;4.88;;;;;;;;;;8214982;28;21147;-61
2023/10/09 18:42:08;;;;;;;5.65;4.20;;;;;;;;;;8215893;28;20030;-61
2023/10/09 18:46:11;;;;;;;;;;;;;;;;;;8217658;28;20050;-63
2023/10/09 18:50:11;;;;;;;10.07;4.30;;;;;;;;;;8213064;28;19924;-62
2023/10/09 18:54:12;;;;;;;9.95;4.22;;;;;;;;;;8213254;28;20105;-61
2023/10/09 18:58:18;;;;;;;6.03;4.13;;;;;;;;;;8213201;28;20121;-61
2023/10/09 19:02:18;;;;;;;9.43;4.60;;;;;;;;;;8212118;28;20044;-61
2023/10/09 19:06:22;;;;;;;7.72;4.65;;;;;;;;;;8208142;28;20122;-61
2023/10/09 19:10:22;;;;;;;;;;;;;;;;;;8211014;28;20030;-61
2023/10/09 19:14:25;;;;;;;8.98;4.53;;;;;;;;;;8212329;28;19929;-61
2023/10/09 19:18:25;;;;;;;7.95;4.65;;;;;;;;;;8208378;28;20065;-61
2023/10/09 19:22:26;;;;;;;10.25;4.40;;;;;;;;;;8209006;28;20556;-61
2023/10/09 19:26:33;;;;;;;9.52;4.57;;;;;;;;;;8211063;28;20034;-61
2023/10/09 19:30:34;;;;;;;8.90;4.50;;;;;;;;;;8210360;28;20843;-62
2023/10/09 19:34:35;;;;;;;11.88;4.30;;;;;;;;;;8207967;28;20018;-62
2023/10/09 19:38:35;;;;;;;6.75;4.32;;;;;;;;;;8211473;28;20057;-62
2023/10/09 19:42:38;;;;;;;6.93;4.05;;;;;;;;;;8207761;28;20033;-62
2023/10/09 19:46:39;;;;;;;;;;;;;;;;;;8211135;28;20130;-61
2023/10/09 19:50:39;;;;;;;8.40;4.38;;;;;;;;;;8204869;28;19918;-61
2023/10/09 19:54:42;;;;;;;8.80;4.33;;;;;;;;;;8216447;28;20022;-61
2023/10/09 19:58:46;;;;;;;7.60;4.18;;;;;;;;;;8212365;28;20033;-62
2023/10/09 20:02:46;;;;;;;7.07;4.18;;;;;;;;;;8208318;28;20127;-62
2023/10/09 20:06:47;;;;;;;6.22;4.30;;;;;;;;;;8215107;28;20029;-62
2023/10/09 20:10:49;;;;;;;8.88;3.88;;;;;;;;;;8211158;28;20021;-61
2023/10/09 20:14:51;;;;;;;8.98;4.53;;;;;;;;;;8215122;28;20047;-61
2023/10/09 20:18:54;;;;;;;7.78;4.22;;;;;;;;;;8209311;28;21140;-61
2023/10/09 20:22:54;;;;;;;8.27;4.43;;;;;;;;;;8210129;28;20626;-61
2023/10/09 20:26:55;;;;;;;7.75;4.03;;;;;;;;;;8211918;28;20064;-61
2023/10/09 20:31:01;;;;;;;6.40;4.18;;;;;;;;;;8207089;28;20048;-62
2023/10/09 20:35:01;;;;;;;8.10;4.22;;;;;;;;;;8212178;28;20050;-63
2023/10/09 20:39:01;;;;;;;8.05;3.75;;;;;;;;;;8210497;28;20937;-61
2023/10/09 20:43:02;;;;;;;5.18;3.78;;;;;;;;;;8206194;28;20034;-62
2023/10/09 20:47:02;;;;;;;7.93;4.22;;;;;;;;;;8210505;28;20037;-61
2023/10/09 20:51:04;;;;;;;8.80;4.13;;;;;;;;;;8204765;28;20022;-62
2023/10/09 20:55:04;;;;;;;7.88;4.38;;;;;;;;;;8210061;28;20045;-61
2023/10/09 20:59:05;;;;;;;7.15;4.53;;;;;;;;;;8214673;28;20462;-61
2023/10/09 21:03:05;;;;;;;7.35;4.47;;;;;;;;;;8210072;28;20475;-62
2023/10/09 21:07:05;;;;;;;9.30;4.45;;;;;;;;;;8213423;28;20451;-62
2023/10/09 21:11:08;;;;;;;9.23;4.40;;;;;;;;;;8212104;28;20034;-62
2023/10/09 21:15:14;;;;;;;7.25;4.10;;;;;;;;;;8212500;28;20088;-61
2023/10/09 21:19:15;;;;;;;7.97;3.75;;;;;;;;;;8211765;28;20014;-62
2023/10/09 21:23:15;;;;;;;7.93;4.40;;;;;;;;;;8212957;28;20033;-61
2023/10/09 21:27:16;;;;;;;8.63;4.30;;;;;;;;;;8213380;28;20057;-61
2023/10/09 21:31:19;;;;;;;6.03;3.65;;;;;;;;;;8212802;28;20062;-62
2023/10/09 21:35:19;;;;;;;7.57;3.92;;;;;;;;;;8213778;28;20742;-61
2023/10/09 21:39:20;;;;;;;9.18;4.00;;;;;;;;;;8216729;28;20113;-61
2023/10/09 21:43:20;;;;;;;9.52;4.13;;;;;;;;;;8214111;28;20032;-61
2023/10/09 21:47:20;;;;;;;6.80;4.15;;;;;;;;;;8209110;28;20039;-61
2023/10/09 21:51:21;;;;;;;5.88;4.15;;;;;;;;;;8211708;28;20728;-61
2023/10/09 21:55:22;;;;;;;7.35;4.38;;;;;;;;;;8215170;28;20018;-62
2023/10/09 21:59:22;;;;;;;7.47;4.63;;;;;;;;;;8211830;28;20037;-62
2023/10/09 22:03:27;;;;;;;7.25;4.70;;;;;;;;;;8215657;28;20031;-62
2023/10/09 22:07:29;;;;;;;6.80;4.60;;;;;;;;;;8218008;28;20066;-62
2023/10/09 22:11:30;;;;;;;8.27;4.17;;;;;;;;;;8220727;28;20042;-63
2023/10/09 22:15:30;;;;;;;9.73;4.38;;;;;;;;;;8221354;28;20108;-61
2023/10/09 22:19:35;;;;;;;7.33;4.13;;;;;;;;;;8218863;28;20080;-61
2023/10/09 22:23:36;;;;;;;7.07;4.40;;;;;;;;;;8219064;28;20140;-61
2023/10/09 22:27:40;;;;;;;7.07;4.40;;;;;;;;;;8220793;28;20065;-61
2023/10/09 22:31:46;;;;;;;;;;;;;;;;;;8216031;28;20073;-61
2023/10/09 22:35:46;;;;;;;5.30;3.58;;;;;;;;;;8218309;28;20414;-62
2023/10/09 22:39:46;;;;;;;12.20;4.78;;;;;;;;;;8221366;28;20072;-62
2023/10/09 22:43:46;;;;;;;14.35;6.07;;;;;;;;;;8218758;28;20133;-62
2023/10/09 22:47:51;;;;;;;19.93;8.03;;;;;;;;;;8217910;28;20042;-61
2023/10/09 22:51:51;;;;;;;23.95;8.02;;;;;;;;;;8217281;28;20100;-61
2023/10/09 22:55:52;;;;;;;11.43;5.67;;;;;;;;;;8217828;28;20107;-62
2023/10/09 22:59:57;;;;;;;8.82;4.85;;;;;;;;;;8219421;28;20280;-61
2023/10/09 23:04:17;;;;;;;8.98;4.47;;;;;;;;;;8219227;28;20038;-62
2023/10/09 23:08:19;;;;;;;7.30;3.97;;;;;;;;;;8222112;28;20023;-61
2023/10/09 23:12:22;;;;;;;5.88;3.50;;;;;;;;;;8222371;28;20203;-61
2023/10/09 23:16:33;;;;;;;;;;;;;;;;;;8219484;28;20048;-61
2023/10/09 23:20:47;;;;;;;8.32;4.22;;;;;;;;;;8221808;28;20539;-61
2023/10/09 23:24:51;;;;;;;8.93;3.78;;;;;;;;;;8223896;28;20259;-62
2023/10/09 23:28:51;;;;;;;6.03;3.80;;;;;;;;;;8221402;28;20038;-61
2023/10/09 23:33:20;;;;;;;7.38;4.10;;;;;;;;;;8217880;28;20045;-61
2023/10/09 23:37:16;;;;;;;6.18;3.97;;;;;;;;;;8221106;28;20045;-61
2023/10/09 23:41:21;;;;;;;9.55;4.00;;;;;;;;;;8217663;28;20034;-61
2023/10/09 23:45:21;;;;;;;5.43;3.58;;;;;;;;;;8224544;28;20743;-61
2023/10/09 23:49:24;;;;;;;10.30;3.67;;;;;;;;;;8220014;28;20482;-61
2023/10/09 23:53:28;;;;;;;7.05;3.92;;;;;;;;;;8222275;28;20062;-61
2023/10/09 23:57:29;;;;;;;8.27;3.83;;;;;;;;;;8220974;28;20026;-61
